createdAt,value
2019-04-23T00:03:49.488Z,4.23
2019-04-23T00:06:24.941Z,4.20
2019-04-23T00:11:30.807Z,3.93
2019-04-23T00:16:27.619Z,3.87
2019-04-23T00:18:49.741Z,3.90
2019-04-23T00:21:39.013Z,3.93
2019-04-23T00:24:11.691Z,4.40
2019-04-23T00:26:39.009Z,4.27
2019-04-23T00:29:11.871Z,4.60
2019-04-23T00:31:36.301Z,4.40
2019-04-23T00:34:09.249Z,4.33
2019-04-23T00:36:44.755Z,4.13
2019-04-23T00:39:10.330Z,3.67
2019-04-23T00:41:48.173Z,4.30
2019-04-23T00:44:15.160Z,4.37
2019-04-23T00:46:40.155Z,3.10
2019-04-23T00:49:19.823Z,4.40
2019-04-23T00:51:54.831Z,3.70
2019-04-23T00:54:22.552Z,3.83
2019-04-23T00:59:12.457Z,4.30
2019-04-23T01:01:56.701Z,4.17
2019-04-23T01:04:20.403Z,4.20
2019-04-23T01:06:52.338Z,4.40
2019-04-23T01:09:22.729Z,4.10
2019-04-23T01:11:52.236Z,3.47
2019-04-23T01:14:20.246Z,5.00
2019-04-23T01:16:49.518Z,4.60
2019-04-23T01:19:43.815Z,4.23
2019-04-23T01:21:55.627Z,4.13
2019-04-23T01:24:50.839Z,4.90
2019-04-23T01:27:53.101Z,4.37
2019-04-23T01:30:23.598Z,4.27
2019-04-23T01:33:02.605Z,4.90
2019-04-23T01:35:20.454Z,4.13
2019-04-23T01:37:47.779Z,4.27
2019-04-23T01:40:27.176Z,4.80
2019-04-23T01:42:49.324Z,4.57
2019-04-23T01:45:31.410Z,4.73
2019-04-23T01:47:54.669Z,4.67
2019-04-23T01:50:54.931Z,4.57
2019-04-23T01:53:02.865Z,4.17
2019-04-23T01:55:26.320Z,3.90
2019-04-23T02:00:37.067Z,4.43
2019-04-23T02:03:05.570Z,5.57
2019-04-23T02:05:38.449Z,4.73
2019-04-23T02:10:47.578Z,4.47
2019-04-23T02:13:11.355Z,5.00
2019-04-23T02:18:13.729Z,5.03
2019-04-23T02:23:24.917Z,5.00
2019-04-23T02:28:31.090Z,4.37
2019-04-23T02:43:29.112Z,4.53
2019-04-23T02:51:04.870Z,5.03
2019-04-23T02:53:55.596Z,4.40
2019-04-23T02:56:18.896Z,4.90
2019-04-23T02:58:43.980Z,4.27
2019-04-23T03:01:25.336Z,4.90
2019-04-23T03:03:57.111Z,4.67
2019-04-23T03:06:18.899Z,4.33
2019-04-23T03:16:33.905Z,4.47
2019-04-23T03:19:19.157Z,4.30
2019-04-23T03:22:00.210Z,4.37
2019-04-23T03:27:28.719Z,4.67
2019-04-23T03:30:43.069Z,4.90
2019-04-23T03:40:02.122Z,4.87
2019-04-23T03:42:38.882Z,4.23
2019-04-23T03:45:17.071Z,4.10
2019-04-23T03:47:32.200Z,4.43
2019-04-23T03:55:12.610Z,4.70
2019-04-23T04:00:15.727Z,4.67
2019-04-23T04:05:15.215Z,4.57
2019-04-23T04:10:05.415Z,4.90
2019-04-23T04:12:39.864Z,4.80
2019-04-23T04:17:52.255Z,4.40
2019-04-23T04:25:33.622Z,4.37
2019-04-23T04:30:21.743Z,4.63
2019-04-23T04:32:59.125Z,4.60
2019-04-23T04:35:22.063Z,4.10
2019-04-23T04:38:16.531Z,4.57
2019-04-23T04:40:31.363Z,4.53
2019-04-23T04:50:24.143Z,4.50
2019-04-23T04:55:26.572Z,4.13
2019-04-23T05:06:02.672Z,4.57
2019-04-23T05:10:44.110Z,5.37
2019-04-23T05:15:28.356Z,5.60
2019-04-23T05:20:58.028Z,5.33
2019-04-23T05:23:45.374Z,4.53
2019-04-23T05:26:15.540Z,5.27
2019-04-23T05:28:55.503Z,5.63
2019-04-23T05:31:18.612Z,5.33
2019-04-23T05:33:46.445Z,5.80
2019-04-23T05:36:33.981Z,5.00
2019-04-23T05:39:01.267Z,5.47
2019-04-23T05:41:23.345Z,6.17
2019-04-23T05:43:54.731Z,5.77
2019-04-23T05:46:26.439Z,5.67
2019-04-23T05:48:54.375Z,5.73
2019-04-23T05:51:27.959Z,5.57
2019-04-23T05:53:56.282Z,5.67
2019-04-23T05:56:41.890Z,5.50
2019-04-23T05:58:58.025Z,5.97
2019-04-23T06:01:53.087Z,5.47
2019-04-23T06:06:52.399Z,6.10
2019-04-23T06:09:09.092Z,5.47
2019-04-23T06:11:47.344Z,5.60
2019-04-23T06:14:11.859Z,5.67
2019-04-23T06:16:47.249Z,5.37
2019-04-23T06:19:13.693Z,5.73
2019-04-23T06:21:56.150Z,6.03
2019-04-23T06:24:16.245Z,5.87
2019-04-23T06:26:49.245Z,5.53
2019-04-23T06:29:20.501Z,6.20
2019-04-23T06:31:50.772Z,5.67
2019-04-23T06:34:17.113Z,6.07
2019-04-23T06:36:46.644Z,5.13
2019-04-23T06:39:23.668Z,5.73
2019-04-23T06:41:49.877Z,5.53
2019-04-23T06:44:28.915Z,5.87
2019-04-23T06:46:56.934Z,6.37
2019-04-23T06:49:26.717Z,6.17
2019-04-23T06:52:08.380Z,5.77
2019-04-23T06:54:25.763Z,5.77
2019-04-23T07:04:34.540Z,6.37
2019-04-23T07:07:29.102Z,6.07
2019-04-23T07:09:26.255Z,6.37
2019-04-23T07:12:07.666Z,5.67
2019-04-23T07:14:36.542Z,5.87
2019-04-23T07:17:04.095Z,5.97
2019-04-23T07:19:38.265Z,5.93
2019-04-23T07:22:14.428Z,5.37
2019-04-23T07:24:43.685Z,6.17
2019-04-23T07:27:11.750Z,5.77
2019-04-23T07:29:41.703Z,5.60
2019-04-23T07:32:23.271Z,6.27
2019-04-23T07:34:49.481Z,5.77
2019-04-23T07:37:16.026Z,5.70
2019-04-23T07:46:10.525Z,5.20
2019-04-23T07:48:24.224Z,5.27
2019-04-23T07:51:00.823Z,5.77
2019-04-23T07:53:53.524Z,5.20
2019-04-23T07:56:08.704Z,5.60
2019-04-23T07:58:46.372Z,6.20
2019-04-23T08:01:06.905Z,6.07
2019-04-23T08:06:05.917Z,5.67
2019-04-23T08:08:39.341Z,5.63
2019-04-23T08:13:55.664Z,5.70
2019-04-23T08:18:55.625Z,5.70
2019-04-23T08:21:18.247Z,6.10
2019-04-23T08:24:06.496Z,5.40
2019-04-23T08:31:52.381Z,5.27
2019-04-23T08:34:30.731Z,5.67
2019-04-23T08:36:58.212Z,5.80
2019-04-23T08:39:24.957Z,5.60
2019-04-23T08:42:09.471Z,5.77
2019-04-23T08:44:46.151Z,5.27
2019-04-23T08:47:17.072Z,5.40
2019-04-23T08:49:46.805Z,5.27
2019-04-23T08:52:21.554Z,5.60
2019-04-23T08:57:21.545Z,5.30
2019-04-23T08:59:50.161Z,5.47
2019-04-23T09:02:31.369Z,5.00
2019-04-23T09:04:55.312Z,5.10
2019-04-23T09:07:31.858Z,5.20
2019-04-23T09:09:59.013Z,5.37
2019-04-23T09:12:31.708Z,5.43
2019-04-23T09:15:01.497Z,5.23
2019-04-23T09:20:13.203Z,5.27
2019-04-23T09:25:08.380Z,5.07
2019-04-23T09:27:33.236Z,5.63
2019-04-23T09:32:36.412Z,5.10
2019-04-23T09:35:30.693Z,5.53
2019-04-23T09:38:19.876Z,5.40
2019-04-23T09:41:16.730Z,5.00
2019-04-23T09:49:58.285Z,4.90
2019-04-23T09:52:14.712Z,4.90
2019-04-23T09:54:51.200Z,5.40
2019-04-23T09:57:12.473Z,4.37
2019-04-23T09:59:43.306Z,4.87
2019-04-23T10:02:05.498Z,4.60
2019-04-23T10:04:32.023Z,5.43
2019-04-23T10:07:04.563Z,4.57
2019-04-23T10:09:20.810Z,4.80
2019-04-23T10:11:51.168Z,5.07
2019-04-23T10:14:20.832Z,4.93
2019-04-23T10:16:51.673Z,4.97
2019-04-23T10:19:22.582Z,4.60
2019-04-23T10:21:53.264Z,4.37
2019-04-23T10:24:23.405Z,4.07
2019-04-23T10:26:52.796Z,4.37
2019-04-23T10:29:25.813Z,4.93
2019-04-23T10:31:55.527Z,4.80
2019-04-23T10:34:25.384Z,4.73
2019-04-23T10:36:55.626Z,4.53
2019-04-23T10:39:30.389Z,4.77
2019-04-23T10:41:57.582Z,4.83
2019-04-23T10:44:33.549Z,4.67
2019-04-23T10:48:24.731Z,4.53
2019-04-23T10:51:00.301Z,4.80
2019-04-23T10:55:58.916Z,4.70
2019-04-23T10:58:24.951Z,4.83
2019-04-23T11:01:00.230Z,4.27
2019-04-23T11:03:41.691Z,4.53
2019-04-23T11:08:30.985Z,4.67
2019-04-23T11:11:12.353Z,4.43
2019-04-23T11:13:32.025Z,4.73
2019-04-23T11:16:45.171Z,4.37
2019-04-23T11:18:53.875Z,4.17
2019-04-23T11:24:19.031Z,4.63
2019-04-23T11:26:34.578Z,4.40
2019-04-23T11:29:12.452Z,4.60
2019-04-23T11:31:43.684Z,5.00
2019-04-23T11:34:20.245Z,4.60
2019-04-23T11:36:53.859Z,4.13
2019-04-23T11:39:16.198Z,4.63
2019-04-23T11:44:26.411Z,4.27
2019-04-23T11:54:24.174Z,4.70
2019-04-23T11:59:39.264Z,4.30
2019-04-23T12:02:49.871Z,4.53
2019-04-23T12:17:22.594Z,4.53
2019-04-23T12:24:58.219Z,4.53
2019-04-23T12:27:08.160Z,4.50
2019-04-23T12:35:04.328Z,4.60
2019-04-23T12:37:55.572Z,3.80
2019-04-23T12:43:05.722Z,3.90
2019-04-23T12:48:06.298Z,4.50
2019-04-23T12:53:05.717Z,3.97
2019-04-23T12:58:23.777Z,4.30
2019-04-23T13:00:46.224Z,4.20
2019-04-23T13:03:37.164Z,4.30
2019-04-23T13:05:51.392Z,4.20
2019-04-23T13:08:35.200Z,4.03
2019-04-23T13:11:14.801Z,4.03
2019-04-23T13:16:06.287Z,4.30
2019-04-23T13:18:41.539Z,3.80
2019-04-23T13:21:15.746Z,4.33
2019-04-23T13:23:34.775Z,4.43
2019-04-23T13:26:04.249Z,4.50
2019-04-23T13:28:37.555Z,4.50
2019-04-23T13:31:12.644Z,4.37
2019-04-23T13:33:43.851Z,4.60
2019-04-23T13:43:52.602Z,4.70
2019-04-23T13:46:14.858Z,4.80
2019-04-23T13:48:49.329Z,4.77
2019-04-23T13:53:57.399Z,4.97
2019-04-23T14:01:28.840Z,4.47
2019-04-23T14:04:07.820Z,4.07
2019-04-23T14:11:32.390Z,4.13
2019-04-23T14:14:19.672Z,6.83
2019-04-23T14:19:23.240Z,5.50
2019-04-23T14:21:44.528Z,4.17
2019-04-23T14:24:38.121Z,4.57
2019-04-23T14:27:09.665Z,4.97
2019-04-23T14:29:22.961Z,5.47
2019-04-23T14:31:57.196Z,4.97
2019-04-23T14:34:19.360Z,4.50
2019-04-23T14:36:57.684Z,4.40
2019-04-23T14:39:40.493Z,4.37
2019-04-23T14:42:03.276Z,5.00
2019-04-23T14:44:30.943Z,4.63
2019-04-23T14:47:16.801Z,5.07
2019-04-23T14:50:09.387Z,4.87
2019-04-23T14:52:23.302Z,4.50
2019-04-23T14:55:37.929Z,5.50
2019-04-23T14:57:32.698Z,3.90
2019-04-23T15:00:01.671Z,4.50
2019-04-23T15:05:07.746Z,4.23
2019-04-23T15:07:36.252Z,4.53
2019-04-23T15:10:12.848Z,5.00
2019-04-23T15:17:33.975Z,5.13
2019-04-23T15:23:08.267Z,4.80
2019-04-23T15:25:30.168Z,4.53
2019-04-23T15:27:02.366Z,4.83
2019-04-23T15:28:05.286Z,6.27
2019-04-23T15:30:17.433Z,5.17
2019-04-23T15:33:07.570Z,6.47
2019-04-23T15:38:18.490Z,5.57
2019-04-23T15:43:02.836Z,4.53
2019-04-23T15:45:28.259Z,4.87
2019-04-23T15:48:08.543Z,5.63
2019-04-23T15:55:28.285Z,4.87
2019-04-23T16:00:30.816Z,4.80
2019-04-23T16:02:38.436Z,5.30
2019-04-23T16:05:09.398Z,5.30
2019-04-23T16:07:57.884Z,5.10
2019-04-23T16:10:45.883Z,5.80
2019-04-23T16:13:13.565Z,5.30
2019-04-23T16:15:45.417Z,5.10
2019-04-23T16:18:28.185Z,5.27
2019-04-23T16:20:58.427Z,4.97
2019-04-23T16:23:21.563Z,4.70
2019-04-23T16:26:05.500Z,4.67
2019-04-23T16:28:27.243Z,4.60
2019-04-23T16:31:03.185Z,5.30
2019-04-23T16:33:22.000Z,5.13
2019-04-23T16:38:55.633Z,5.07
2019-04-23T16:41:09.529Z,5.47
2019-04-23T16:43:42.172Z,5.10
2019-04-23T16:46:16.320Z,5.07
2019-04-23T16:48:55.451Z,4.97
2019-04-23T16:53:42.654Z,4.60
2019-04-23T16:56:18.357Z,4.30
2019-04-23T17:01:20.489Z,5.83
2019-04-23T17:04:08.273Z,6.37
2019-04-23T17:06:32.297Z,5.70
2019-04-23T17:09:05.190Z,5.80
2019-04-23T17:11:55.649Z,5.70
2019-04-23T17:14:10.139Z,6.63
2019-04-23T17:16:36.028Z,5.90
2019-04-23T17:19:14.650Z,5.90
2019-04-23T17:21:40.579Z,6.17
2019-04-23T17:26:38.939Z,5.93
2019-04-23T17:29:16.116Z,5.87
2019-04-23T17:34:23.667Z,6.10
2019-04-23T17:43:00.218Z,6.30
2019-04-23T17:48:16.157Z,7.00
2019-04-23T17:50:56.609Z,6.67
2019-04-23T17:53:25.453Z,6.17
2019-04-23T17:56:18.533Z,7.00
2019-04-23T17:58:28.861Z,7.57
2019-04-23T18:03:41.561Z,6.23
2019-04-23T18:06:23.391Z,6.73
2019-04-23T18:08:43.555Z,5.97
2019-04-23T18:11:23.319Z,5.97
2019-04-23T18:13:46.477Z,6.07
2019-04-23T18:16:16.222Z,6.23
2019-04-23T18:18:56.775Z,6.27
2019-04-23T18:21:32.259Z,6.27
2019-04-23T18:24:20.838Z,7.00
2019-04-23T18:26:58.006Z,6.27
2019-04-23T18:29:43.863Z,6.70
2019-04-23T18:32:16.984Z,7.27
2019-04-23T18:35:10.311Z,6.47
2019-04-23T18:37:22.543Z,6.00
2019-04-23T18:42:29.646Z,5.97
2019-04-23T18:44:51.870Z,7.30
2019-04-23T18:47:24.821Z,7.27
2019-04-23T18:49:55.337Z,6.07
2019-04-23T18:54:48.341Z,5.57
2019-04-23T18:57:34.031Z,5.50
2019-04-23T19:00:03.256Z,5.80
2019-04-23T19:05:28.722Z,6.50
2019-04-23T19:10:50.626Z,5.63
2019-04-23T19:13:26.440Z,6.10
2019-04-23T19:15:45.845Z,6.47
2019-04-23T19:26:02.148Z,5.80
2019-04-23T19:31:25.893Z,6.40
2019-04-23T19:34:17.553Z,6.73
2019-04-23T19:39:13.273Z,6.50
2019-04-23T19:41:52.468Z,6.57
2019-04-23T19:44:10.324Z,6.57
2019-04-23T19:49:14.896Z,7.40
2019-04-23T19:51:47.903Z,6.83
2019-04-23T19:54:39.271Z,5.67
2019-04-23T19:56:51.322Z,6.90
2019-04-23T19:59:15.624Z,6.83
2019-04-23T20:01:47.253Z,6.40
2019-04-23T20:04:15.415Z,5.70
2019-04-23T20:07:04.382Z,7.07
2019-04-23T20:09:37.369Z,6.27
2019-04-23T20:12:06.043Z,6.20
2019-04-23T20:14:19.298Z,6.73
2019-04-23T20:17:17.646Z,6.67
2019-04-23T20:19:33.069Z,6.60
2019-04-23T20:24:33.977Z,7.23
2019-04-23T20:27:06.120Z,6.73
2019-04-23T20:30:15.551Z,7.00
2019-04-23T20:34:58.878Z,7.00
2019-04-23T20:37:47.363Z,7.00
2019-04-23T20:40:04.433Z,7.40
2019-04-23T20:42:27.388Z,7.23
2019-04-23T20:45:02.580Z,7.83
2019-04-23T20:47:30.402Z,7.80
2019-04-23T20:50:09.929Z,7.77
2019-04-23T20:52:22.776Z,7.13
2019-04-23T20:57:51.717Z,6.93
2019-04-23T21:00:30.331Z,8.20
2019-04-23T21:05:36.734Z,7.27
2019-04-23T21:08:06.234Z,6.77
2019-04-23T21:13:15.174Z,7.47
2019-04-23T21:18:15.959Z,7.30
2019-04-23T21:20:43.395Z,8.03
2019-04-23T21:23:14.536Z,7.57
2019-04-23T21:31:22.812Z,7.03
2019-04-23T21:33:34.080Z,7.60
2019-04-23T21:42:39.070Z,6.97
2019-04-23T21:44:59.350Z,6.33
2019-04-23T21:47:40.234Z,7.67
2019-04-23T21:52:33.866Z,6.67
2019-04-23T21:57:44.313Z,7.33
2019-04-23T21:59:59.407Z,7.27
2019-04-23T22:02:58.894Z,6.20
2019-04-23T22:05:09.063Z,6.03
2019-04-23T22:07:46.174Z,7.40
2019-04-23T22:12:48.747Z,6.30
2019-04-23T22:15:07.346Z,5.57
2019-04-23T22:17:39.303Z,5.70
2019-04-23T22:20:21.407Z,7.07
2019-04-23T22:22:57.129Z,7.00
2019-04-23T22:25:11.262Z,7.30
2019-04-23T22:27:48.445Z,7.40
2019-04-23T22:30:11.270Z,5.83
2019-04-23T22:35:16.274Z,6.40
2019-04-23T22:40:18.490Z,7.37
2019-04-23T22:43:09.127Z,7.10
2019-04-23T22:45:21.102Z,6.83
2019-04-23T22:47:59.866Z,7.03
2019-04-23T22:50:31.451Z,6.60
2019-04-23T22:52:55.434Z,6.70
2019-04-23T22:55:23.565Z,6.83
2019-04-23T22:58:06.542Z,7.13
2019-04-23T23:01:23.739Z,6.93
2019-04-23T23:03:48.692Z,6.20
2019-04-23T23:06:29.650Z,7.27
2019-04-23T23:08:55.665Z,7.83
2019-04-23T23:11:08.861Z,7.50
2019-04-23T23:14:07.812Z,7.60
2019-04-23T23:18:52.461Z,7.63
2019-04-23T23:21:20.544Z,8.43
2019-04-23T23:23:49.668Z,7.90
2019-04-23T23:26:17.410Z,7.87
2019-04-23T23:28:44.613Z,7.80
2019-04-23T23:33:54.244Z,7.50
2019-04-23T23:36:20.205Z,8.07
2019-04-23T23:41:43.907Z,8.60
2019-04-23T23:44:08.261Z,7.93
2019-04-23T23:46:35.470Z,7.93
2019-04-23T23:48:56.038Z,7.33
2019-04-23T23:51:29.233Z,8.53
2019-04-23T23:54:01.992Z,8.10
2019-04-23T23:56:30.216Z,8.23
2019-04-23T23:59:03.730Z,8.37
